PMDY

Details ICAO PMDY (MDY)
Name Henderson Field - Midway Atoll
Region USA (Midway Island)
Timezone Pacific/Midway (UTC-11.0)
Plans Departing 268
Arriving 309
Stats Elevation 13 ft / 4 m (AMSL)
Location 28.201500° -177.382000°
Runways 1
Magnetic Variation 7.286° E
Sunrise 2020-10-26 17:58:33 UTC / 2020-10-26 06:58:33 Local
Sunset 2020-10-27 05:10:38 UTC / 2020-10-26 18:10:38 Local
Advertisement - Login to hide

Runways

ID Width Length Bearing (true/mag) Surface Threshold Overrun Markings Lighting
06 200 ft / 61 m 7,880 ft / 2,402 m 68.50° / 61.21° ASPHALT 0 ft / 0 m 499 ft / 152 m APP EDGE THRESHOLD
24 200 ft / 61 m 7,880 ft / 2,402 m 248.51° / 241.22° ASPHALT 0 ft / 0 m 151 ft / 46 m APP EDGE THRESHOLD

Map

Weather


0- 5 10 15 20 25 30 35+ Temperature / °C

Clouds and Precipitation
Forecast for 2020-10-27 06:00 UTC. Updated 6 hours ago

Ground ~20,000 ft ~40,000 ft Winds

METAR

PMDY 270756Z AUTO 05012KT 7SM BKN035 21/15 A3027 RMK AO2 SLP251 T02110150

TAF

TAF PMDY 270533Z 2706/2806 04009KT P6SM FEW020 SCT040

Frequencies

Unicom 122.90 MHz CTAF
Recorded 118.32 MHz AWOS 3
Warning: Do not use this data for real-world aviation or navigation. No guarantee of current accuracy is given.